createdAt,value
2023-04-25T00:01:50.128Z,6.60
2023-04-25T00:04:17.448Z,6.60
2023-04-25T00:06:44.140Z,6.50
2023-04-25T00:09:12.034Z,6.40
2023-04-25T00:11:38.879Z,6.30
2023-04-25T00:14:05.536Z,6.30
2023-04-25T00:16:34.795Z,6.30
2023-04-25T00:19:02.472Z,6.30
2023-04-25T00:21:29.254Z,6.30
2023-04-25T00:23:56.541Z,6.20
2023-04-25T00:26:23.090Z,6.20
2023-04-25T00:28:49.617Z,6.10
2023-04-25T00:31:16.231Z,6.00
2023-04-25T00:33:42.808Z,6.10
2023-04-25T00:36:09.623Z,6.10
2023-04-25T00:38:36.687Z,6.00
2023-04-25T00:41:03.225Z,5.90
2023-04-25T00:43:31.124Z,5.90
2023-04-25T00:45:58.550Z,5.80
2023-04-25T00:48:25.230Z,5.70
2023-04-25T00:50:55.676Z,5.70
2023-04-25T00:53:22.653Z,5.60
2023-04-25T00:55:51.666Z,5.60
2023-04-25T00:58:18.888Z,5.60
2023-04-25T01:00:49.345Z,5.60
2023-04-25T01:03:17.430Z,5.60
2023-04-25T01:05:44.562Z,5.60
2023-04-25T01:08:11.277Z,5.70
2023-04-25T01:10:37.964Z,5.70
2023-04-25T01:13:04.601Z,5.70
2023-04-25T01:15:31.281Z,5.70
2023-04-25T01:17:59.110Z,5.80
2023-04-25T01:20:25.913Z,5.80
2023-04-25T01:22:53.421Z,5.90
2023-04-25T01:25:20.098Z,6.00
2023-04-25T01:27:47.339Z,6.00
2023-04-25T01:30:14.144Z,6.00
2023-04-25T01:32:41.201Z,6.10
2023-04-25T01:35:11.688Z,6.20
2023-04-25T01:37:38.570Z,6.20
2023-04-25T01:40:06.416Z,6.30
2023-04-25T01:42:33.683Z,6.30
2023-04-25T01:45:00.460Z,6.40
2023-04-25T01:47:27.046Z,6.50
2023-04-25T01:49:53.572Z,6.60
2023-04-25T01:52:20.389Z,6.60
2023-04-25T01:54:47.108Z,6.70
2023-04-25T01:57:13.678Z,6.80
2023-04-25T01:59:40.759Z,6.90
2023-04-25T02:02:07.428Z,6.80
2023-04-25T02:04:34.019Z,6.90
2023-04-25T02:07:00.859Z,6.90
2023-04-25T02:09:27.398Z,7.00
2023-04-25T02:11:53.987Z,7.00
2023-04-25T02:14:20.513Z,7.00
2023-04-25T02:16:47.933Z,7.10
2023-04-25T02:19:14.488Z,7.10
2023-04-25T02:21:41.012Z,7.20
2023-04-25T02:24:07.757Z,7.20
2023-04-25T02:26:34.303Z,7.20
2023-04-25T02:29:00.819Z,7.30
2023-04-25T02:31:27.474Z,7.30
2023-04-25T02:33:54.105Z,7.40
2023-04-25T02:36:20.628Z,7.50
2023-04-25T02:38:47.118Z,7.50
2023-04-25T02:41:13.630Z,7.50
2023-04-25T02:43:40.222Z,7.50
2023-04-25T02:46:07.378Z,7.60
2023-04-25T02:48:33.902Z,7.60
2023-04-25T02:51:00.453Z,7.60
2023-04-25T02:53:26.980Z,7.60
2023-04-25T02:55:53.838Z,7.60
2023-04-25T02:58:20.492Z,7.60
2023-04-25T03:00:47.060Z,7.60
2023-04-25T03:03:13.856Z,7.60
2023-04-25T03:05:40.563Z,7.70
2023-04-25T03:08:07.113Z,7.70
2023-04-25T03:10:33.928Z,7.70
2023-04-25T03:13:00.520Z,7.80
2023-04-25T03:15:27.037Z,7.80
2023-04-25T03:17:53.592Z,7.80
2023-04-25T03:20:20.129Z,7.80
2023-04-25T03:22:46.746Z,7.80
2023-04-25T03:25:13.271Z,7.80
2023-04-25T03:27:39.817Z,7.80
2023-04-25T03:30:07.506Z,7.80
2023-04-25T03:32:34.330Z,7.80
2023-04-25T03:35:00.976Z,7.80
2023-04-25T03:37:27.517Z,7.80
2023-04-25T03:39:54.011Z,7.80
2023-04-25T03:42:20.885Z,7.90
2023-04-25T03:44:47.421Z,8.00
2023-04-25T03:47:14.000Z,7.90
2023-04-25T03:49:40.538Z,8.00
2023-04-25T03:52:07.024Z,8.00
2023-04-25T03:54:33.688Z,8.00
2023-04-25T03:57:00.201Z,8.10
2023-04-25T03:59:27.094Z,8.10
2023-04-25T04:01:54.062Z,8.10
2023-04-25T04:04:20.910Z,8.20
2023-04-25T04:06:47.794Z,8.10
2023-04-25T04:09:14.562Z,8.00
2023-04-25T04:11:41.300Z,8.10
2023-04-25T04:14:08.378Z,8.10
2023-04-25T04:16:35.191Z,8.00
2023-04-25T04:19:02.080Z,8.10
2023-04-25T04:21:28.679Z,8.00
2023-04-25T04:23:55.450Z,8.00
2023-04-25T04:26:24.307Z,8.00
2023-04-25T04:28:51.799Z,8.00
2023-04-25T04:31:20.435Z,8.00
2023-04-25T04:33:47.458Z,7.90
2023-04-25T04:36:13.989Z,7.90
2023-04-25T04:38:42.156Z,8.00
2023-04-25T04:41:08.955Z,7.90
2023-04-25T04:43:35.561Z,8.00
2023-04-25T04:46:02.100Z,7.90
2023-04-25T04:48:29.174Z,8.00
2023-04-25T04:50:55.693Z,8.00
2023-04-25T04:53:22.202Z,8.00
2023-04-25T04:55:48.754Z,7.90
2023-04-25T04:58:16.498Z,7.90
2023-04-25T05:00:44.667Z,7.90
2023-04-25T05:03:12.554Z,7.90
2023-04-25T05:05:40.978Z,7.90
2023-04-25T05:08:07.500Z,8.00
2023-04-25T05:10:34.191Z,8.00
2023-04-25T05:13:00.845Z,8.10
2023-04-25T05:15:27.382Z,8.10
2023-04-25T05:17:54.038Z,8.20
2023-04-25T05:20:20.644Z,8.20
2023-04-25T05:22:47.141Z,8.30
2023-04-25T05:25:13.674Z,8.20
2023-04-25T05:27:40.171Z,8.10
2023-04-25T05:30:07.079Z,8.10
2023-04-25T05:32:33.594Z,8.10
2023-04-25T05:35:00.846Z,8.10
2023-04-25T05:37:27.516Z,8.10
2023-04-25T05:39:54.549Z,8.00
2023-04-25T05:42:21.184Z,7.90
2023-04-25T05:44:47.736Z,8.00
2023-04-25T05:47:14.463Z,8.00
2023-04-25T05:49:40.956Z,8.10
2023-04-25T05:52:07.468Z,8.10
2023-04-25T05:54:34.050Z,8.30
2023-04-25T05:57:00.711Z,8.30
2023-04-25T05:59:27.250Z,8.30
2023-04-25T06:01:53.798Z,8.50
2023-04-25T06:04:20.520Z,8.60
2023-04-25T06:06:47.157Z,8.70
2023-04-25T06:09:14.547Z,8.70
2023-04-25T06:11:41.245Z,8.60
2023-04-25T06:14:08.354Z,8.60
2023-04-25T06:16:34.985Z,8.60
2023-04-25T06:19:01.643Z,8.60
2023-04-25T06:21:28.418Z,8.60
2023-04-25T06:23:54.931Z,8.60
2023-04-25T06:26:21.472Z,8.60
2023-04-25T06:28:47.971Z,8.60
2023-04-25T06:31:14.527Z,8.60
2023-04-25T06:33:41.104Z,8.60
2023-04-25T06:36:07.748Z,8.60
2023-04-25T06:38:35.699Z,8.60
2023-04-25T06:41:02.338Z,8.60
2023-04-25T06:43:28.932Z,8.60
2023-04-25T06:45:55.469Z,8.70
2023-04-25T06:48:22.012Z,8.70
2023-04-25T06:50:48.599Z,8.80
2023-04-25T06:53:15.120Z,8.80
2023-04-25T06:55:41.678Z,8.90
2023-04-25T06:58:08.236Z,8.80
2023-04-25T07:00:34.894Z,8.90
2023-04-25T07:03:01.671Z,8.80
2023-04-25T07:05:28.458Z,8.80
2023-04-25T07:07:55.283Z,8.80
2023-04-25T07:10:22.342Z,8.80
2023-04-25T07:12:48.895Z,8.70
2023-04-25T07:15:15.506Z,8.60
2023-04-25T07:17:42.057Z,8.60
2023-04-25T07:20:10.119Z,8.50
2023-04-25T07:22:36.957Z,8.40
2023-04-25T07:25:05.068Z,8.40
2023-04-25T07:27:31.883Z,8.40
2023-04-25T07:29:58.479Z,8.40
2023-04-25T07:32:25.118Z,8.40
2023-04-25T07:34:52.131Z,8.50
2023-04-25T07:37:19.757Z,8.70
2023-04-25T07:39:49.395Z,8.70
2023-04-25T07:42:16.057Z,8.80
2023-04-25T07:44:43.321Z,9.00
2023-04-25T07:47:10.619Z,9.00
2023-04-25T07:49:37.421Z,9.10
2023-04-25T07:52:04.659Z,9.10
2023-04-25T07:54:31.186Z,8.90
2023-04-25T07:56:57.738Z,8.70
2023-04-25T07:59:24.436Z,8.60
2023-04-25T08:01:51.474Z,8.70
2023-04-25T08:04:18.297Z,8.80
2023-04-25T08:06:45.156Z,8.90
2023-04-25T08:09:11.866Z,9.20
2023-04-25T08:11:38.563Z,9.30
2023-04-25T08:14:05.985Z,9.40
2023-04-25T08:16:32.525Z,9.50
2023-04-25T08:19:00.056Z,9.50
2023-04-25T08:21:27.862Z,9.40
2023-04-25T08:23:54.421Z,9.40
2023-04-25T08:26:21.122Z,9.40
2023-04-25T08:28:47.767Z,9.30
2023-04-25T08:31:14.375Z,9.20
2023-04-25T08:33:40.973Z,9.10
2023-04-25T08:36:07.531Z,9.20
2023-04-25T08:38:34.096Z,9.10
2023-04-25T08:41:01.791Z,9.00
2023-04-25T08:43:29.690Z,8.90
2023-04-25T08:45:59.152Z,8.90
2023-04-25T08:48:27.515Z,9.10
2023-04-25T08:50:54.878Z,9.20
2023-04-25T08:53:28.250Z,9.30
2023-04-25T08:55:55.764Z,9.30
2023-04-25T08:58:22.724Z,9.40
2023-04-25T09:00:49.452Z,9.40
2023-04-25T09:03:16.508Z,9.20
2023-04-25T09:05:44.825Z,9.10
2023-04-25T09:08:11.537Z,8.90
2023-04-25T09:10:38.392Z,8.90
2023-04-25T09:13:06.100Z,9.10
2023-04-25T09:15:33.136Z,9.20
2023-04-25T09:18:00.383Z,9.10
2023-04-25T09:20:27.111Z,9.10
2023-04-25T09:23:04.379Z,9.20
2023-04-25T09:25:34.587Z,9.30
2023-04-25T09:28:04.208Z,9.30
2023-04-25T09:30:31.786Z,9.20
2023-04-25T09:33:04.414Z,9.10
2023-04-25T09:35:35.812Z,9.00
2023-04-25T09:38:02.383Z,8.90
2023-04-25T09:40:31.105Z,8.90
2023-04-25T09:42:57.748Z,8.80
2023-04-25T09:45:24.337Z,8.80
2023-04-25T09:47:51.614Z,8.80
2023-04-25T09:50:19.935Z,8.80
2023-04-25T09:52:46.582Z,8.90
2023-04-25T09:55:13.129Z,9.00
2023-04-25T09:57:40.793Z,9.20
2023-04-25T10:00:10.583Z,9.30
2023-04-25T10:02:39.164Z,9.40
2023-04-25T10:05:07.510Z,9.50
2023-04-25T10:07:34.821Z,9.50
2023-04-25T10:10:05.867Z,9.30
2023-04-25T10:12:33.815Z,9.30
2023-04-25T10:15:01.251Z,9.30
2023-04-25T10:17:28.921Z,9.30
2023-04-25T10:19:55.726Z,9.30
2023-04-25T10:22:42.501Z,9.40
2023-04-25T10:25:09.927Z,9.50
2023-04-25T10:27:36.801Z,9.40
2023-04-25T10:30:15.154Z,9.50
2023-04-25T10:32:46.182Z,9.40
2023-04-25T10:35:17.190Z,9.40
2023-04-25T10:38:09.836Z,9.30
2023-04-25T10:40:36.397Z,9.20
2023-04-25T10:43:21.867Z,9.10
2023-04-25T10:45:54.522Z,9.10
2023-04-25T10:48:27.620Z,9.00
2023-04-25T10:51:10.824Z,9.00
2023-04-25T10:53:37.510Z,9.00
2023-04-25T10:56:23.201Z,9.00
2023-04-25T10:58:51.993Z,9.00
2023-04-25T11:01:27.714Z,8.90
2023-04-25T11:03:59.153Z,8.90
2023-04-25T11:06:47.646Z,8.90
2023-04-25T11:09:14.458Z,8.90
2023-04-25T11:11:41.229Z,9.00
2023-04-25T11:14:07.818Z,8.90
2023-04-25T11:16:34.389Z,8.80
2023-04-25T11:19:01.000Z,8.70
2023-04-25T11:21:28.805Z,8.70
2023-04-25T11:23:57.401Z,8.70
2023-04-25T11:26:25.613Z,8.60
2023-04-25T11:28:52.138Z,8.50
2023-04-25T11:31:21.407Z,8.50
2023-04-25T11:33:48.325Z,8.60
2023-04-25T11:36:15.097Z,8.40
2023-04-25T11:38:42.511Z,8.40
2023-04-25T11:41:09.422Z,8.50
2023-04-25T11:43:37.026Z,8.50
2023-04-25T11:46:07.762Z,8.60
2023-04-25T11:48:37.881Z,8.60
2023-04-25T11:51:04.982Z,8.70
2023-04-25T11:53:31.706Z,8.70
2023-04-25T11:55:58.306Z,8.80
2023-04-25T11:58:24.964Z,8.80
2023-04-25T12:00:51.515Z,9.00
2023-04-25T12:03:24.916Z,9.10
2023-04-25T12:05:51.982Z,9.00
2023-04-25T12:08:19.034Z,8.90
2023-04-25T12:10:46.608Z,8.80
2023-04-25T12:13:23.588Z,8.70
2023-04-25T12:15:50.572Z,8.70
2023-04-25T12:18:20.353Z,8.50
2023-04-25T12:20:46.919Z,8.20
2023-04-25T12:23:13.558Z,8.00
2023-04-25T12:25:42.027Z,7.80
2023-04-25T12:28:12.294Z,7.70
2023-04-25T12:30:55.093Z,7.70
2023-04-25T12:33:22.687Z,7.70
2023-04-25T12:35:49.224Z,7.60
2023-04-25T12:38:42.146Z,7.50
2023-04-25T12:41:09.052Z,7.50
2023-04-25T12:43:36.031Z,7.50
2023-04-25T12:46:02.566Z,7.50
2023-04-25T12:48:29.156Z,7.50
2023-04-25T12:50:55.676Z,7.60
2023-04-25T12:53:22.995Z,7.70
2023-04-25T12:55:49.658Z,7.80
2023-04-25T12:58:16.839Z,7.80
2023-04-25T13:00:44.040Z,7.90
2023-04-25T13:03:12.052Z,8.00
2023-04-25T13:05:39.224Z,8.10
2023-04-25T13:08:05.816Z,8.10
2023-04-25T13:10:32.361Z,8.10
2023-04-25T13:12:58.892Z,8.10
2023-04-25T13:15:25.860Z,8.00
2023-04-25T13:17:52.489Z,8.00
2023-04-25T13:20:19.896Z,8.10
2023-04-25T13:22:46.691Z,8.20
2023-04-25T13:25:13.204Z,8.40
2023-04-25T13:27:41.393Z,8.50
2023-04-25T13:30:08.536Z,8.60
2023-04-25T13:32:37.092Z,8.70
2023-04-25T13:35:07.119Z,8.80
2023-04-25T13:37:35.103Z,8.90
2023-04-25T13:40:06.585Z,9.20
2023-04-25T13:42:33.216Z,9.40
2023-04-25T13:44:59.814Z,9.50
2023-04-25T13:47:26.859Z,9.50
2023-04-25T13:49:53.377Z,9.60
2023-04-25T13:52:19.925Z,9.60
2023-04-25T13:54:46.545Z,9.70
2023-04-25T13:57:13.454Z,9.60
2023-04-25T13:59:40.238Z,9.70
2023-04-25T14:02:07.254Z,9.80
2023-04-25T14:04:34.089Z,9.80
2023-04-25T14:07:00.741Z,9.90
2023-04-25T14:09:28.284Z,10.20
2023-04-25T14:11:55.324Z,10.30
2023-04-25T14:14:22.391Z,10.50
2023-04-25T14:16:49.412Z,10.60
2023-04-25T14:19:16.409Z,10.70
2023-04-25T14:21:43.665Z,10.60
2023-04-25T14:24:11.728Z,10.50
2023-04-25T14:26:39.224Z,10.30
2023-04-25T14:29:08.044Z,10.00
2023-04-25T14:31:34.964Z,9.90
2023-04-25T14:34:01.682Z,9.50
2023-04-25T14:36:31.903Z,9.00
2023-04-25T14:38:58.756Z,8.70
2023-04-25T14:41:25.859Z,8.30
2023-04-25T14:43:53.849Z,8.10
2023-04-25T14:46:21.483Z,7.90
2023-04-25T14:48:48.187Z,7.90
2023-04-25T14:51:14.816Z,7.90
2023-04-25T14:53:41.886Z,7.90
2023-04-25T14:56:08.570Z,7.80
2023-04-25T14:58:35.443Z,7.80
2023-04-25T15:01:02.294Z,7.80
2023-04-25T15:03:29.044Z,7.80
2023-04-25T15:05:55.985Z,7.90
2023-04-25T15:08:22.541Z,8.10
2023-04-25T15:10:49.108Z,8.30
2023-04-25T15:13:16.353Z,8.40
2023-04-25T15:18:33.865Z,8.70
2023-04-25T15:21:00.434Z,8.80
2023-04-25T15:23:29.596Z,8.90
2023-04-25T15:25:56.559Z,8.90
2023-04-25T15:28:23.089Z,9.10
2023-04-25T15:30:49.823Z,9.00
2023-04-25T15:33:16.449Z,9.00
2023-04-25T15:35:43.029Z,8.90
2023-04-25T15:38:11.275Z,9.00
2023-04-25T15:40:37.937Z,9.00
2023-04-25T15:43:04.518Z,9.00
2023-04-25T15:45:32.431Z,9.10
2023-04-25T15:47:59.030Z,9.20
2023-04-25T15:50:25.812Z,9.30
2023-04-25T15:52:52.574Z,9.30
2023-04-25T15:55:20.901Z,9.40
2023-04-25T15:57:49.507Z,9.30
2023-04-25T16:00:17.548Z,9.20
2023-04-25T16:02:45.691Z,9.10
2023-04-25T16:05:14.416Z,9.00
2023-04-25T16:07:41.814Z,8.80
2023-04-25T16:10:09.163Z,8.70
2023-04-25T16:12:36.266Z,8.70
2023-04-25T16:15:03.276Z,8.70
2023-04-25T16:17:30.140Z,8.70
2023-04-25T16:19:57.035Z,8.70
2023-04-25T16:22:23.663Z,8.80
2023-04-25T16:24:50.618Z,8.80
2023-04-25T16:27:17.310Z,8.70
2023-04-25T16:29:43.839Z,8.70
2023-04-25T16:32:10.879Z,8.60
2023-04-25T16:34:37.514Z,8.60
2023-04-25T16:37:04.454Z,8.60
2023-04-25T16:39:31.020Z,8.60
2023-04-25T16:41:57.556Z,8.50
2023-04-25T16:44:24.084Z,8.40
2023-04-25T16:46:50.658Z,8.40
2023-04-25T16:49:17.188Z,8.40
2023-04-25T16:51:43.711Z,8.40
2023-04-25T16:54:10.276Z,8.40
2023-04-25T16:56:37.310Z,8.50
2023-04-25T16:59:03.864Z,8.50
2023-04-25T17:01:31.101Z,8.50
2023-04-25T17:03:57.930Z,8.40
2023-04-25T17:06:24.748Z,8.40
2023-04-25T17:08:51.679Z,8.40
2023-04-25T17:11:19.639Z,8.30
2023-04-25T17:13:46.402Z,8.40
2023-04-25T17:16:16.524Z,8.40
2023-04-25T17:18:43.864Z,8.40
2023-04-25T17:21:10.573Z,8.60
2023-04-25T17:23:37.526Z,8.60
2023-04-25T17:26:04.142Z,8.60
2023-04-25T17:28:31.000Z,8.70
2023-04-25T17:30:58.590Z,8.70
2023-04-25T17:33:27.019Z,8.60
2023-04-25T17:35:54.284Z,8.50
2023-04-25T17:38:20.885Z,8.60
2023-04-25T17:40:47.870Z,8.50
2023-04-25T17:43:14.389Z,8.40
2023-04-25T17:45:41.194Z,8.30
2023-04-25T17:48:08.460Z,8.20
2023-04-25T17:50:35.141Z,8.20
2023-04-25T17:53:03.584Z,8.20
2023-04-25T17:55:30.188Z,8.10
2023-04-25T17:57:56.761Z,8.10
2023-04-25T18:00:23.332Z,8.10
2023-04-25T18:02:52.890Z,8.00
2023-04-25T18:05:19.958Z,8.00
2023-04-25T18:07:46.529Z,7.90
2023-04-25T18:10:14.410Z,7.90
2023-04-25T18:12:40.966Z,7.80
2023-04-25T18:23:41.490Z,7.70
2023-04-25T18:26:08.146Z,7.60
2023-04-25T18:28:34.785Z,7.50
2023-04-25T18:31:01.457Z,7.40
2023-04-25T18:33:28.389Z,7.30
2023-04-25T18:35:59.339Z,7.30
2023-04-25T18:41:00.112Z,7.20
2023-04-25T18:43:37.123Z,7.10
2023-04-25T18:46:03.724Z,7.00
2023-04-25T18:48:30.366Z,7.10
2023-04-25T18:50:58.612Z,7.00
2023-04-25T18:53:25.110Z,7.00
2023-04-25T18:55:51.644Z,6.90
2023-04-25T18:58:18.141Z,6.80
2023-04-25T19:00:47.144Z,6.70
2023-04-25T19:03:13.733Z,6.70
2023-04-25T19:05:40.843Z,6.50
2023-04-25T19:08:07.674Z,6.50
2023-04-25T19:10:34.301Z,6.40
2023-04-25T19:13:00.850Z,6.30
2023-04-25T19:15:28.297Z,6.20
2023-04-25T19:17:54.881Z,6.10
2023-04-25T19:20:21.658Z,6.00
2023-04-25T19:22:48.429Z,5.90
2023-04-25T19:25:14.934Z,5.90
2023-04-25T19:27:41.671Z,5.80
2023-04-25T19:30:08.848Z,5.70
2023-04-25T19:32:35.935Z,5.60
2023-04-25T19:35:03.927Z,5.50
2023-04-25T19:37:30.616Z,5.40
2023-04-25T19:39:57.269Z,5.40
2023-04-25T19:42:23.771Z,5.40
2023-04-25T19:44:51.556Z,5.40
2023-04-25T19:47:18.097Z,5.40
2023-04-25T19:49:44.669Z,5.30
2023-04-25T19:52:14.883Z,5.30
2023-04-25T19:54:45.500Z,5.30
2023-04-25T19:57:12.376Z,5.30
2023-04-25T19:59:39.453Z,5.10
2023-04-25T20:02:06.769Z,5.10
2023-04-25T20:04:33.510Z,5.10
2023-04-25T20:07:00.693Z,5.00
2023-04-25T20:09:27.309Z,4.80
2023-04-25T20:11:53.873Z,4.80
2023-04-25T20:14:21.629Z,4.80
2023-04-25T20:16:48.316Z,5.00
2023-04-25T20:19:15.006Z,5.10
2023-04-25T20:21:41.617Z,5.10
2023-04-25T20:24:08.590Z,5.10
2023-04-25T20:26:35.859Z,5.00
2023-04-25T20:29:02.481Z,5.00
2023-04-25T20:31:29.369Z,4.90
2023-04-25T20:33:55.987Z,4.90
2023-04-25T20:36:22.523Z,4.80
2023-04-25T20:38:49.478Z,4.80
2023-04-25T20:41:16.153Z,4.90
2023-04-25T20:43:42.764Z,4.90
2023-04-25T20:46:10.279Z,4.90
2023-04-25T20:48:37.049Z,4.90
2023-04-25T20:51:04.358Z,4.90
2023-04-25T20:53:31.075Z,4.80
2023-04-25T20:55:58.651Z,4.80
2023-04-25T20:58:26.244Z,4.70
2023-04-25T21:00:53.402Z,4.70
2023-04-25T21:03:20.816Z,4.80
2023-04-25T21:05:47.558Z,4.80
2023-04-25T21:08:14.485Z,4.90
2023-04-25T21:10:41.142Z,4.80
2023-04-25T21:13:07.752Z,4.80
2023-04-25T21:15:34.293Z,4.80
2023-04-25T21:18:01.745Z,4.80
2023-04-25T21:20:28.380Z,4.90
2023-04-25T21:22:54.919Z,5.00
2023-04-25T21:25:30.825Z,5.30
2023-04-25T21:27:58.001Z,5.30
2023-04-25T21:30:25.953Z,5.50
2023-04-25T21:32:52.971Z,5.60
2023-04-25T21:35:20.391Z,5.70
2023-04-25T21:37:47.244Z,5.60
2023-04-25T21:40:14.618Z,5.70
2023-04-25T21:42:42.248Z,5.70
2023-04-25T21:45:09.081Z,5.60
2023-04-25T21:47:35.854Z,5.70
2023-04-25T21:50:02.475Z,5.70
2023-04-25T21:52:29.310Z,5.60
2023-04-25T21:54:58.122Z,5.50
2023-04-25T21:57:24.689Z,5.60
2023-04-25T21:59:51.193Z,5.50
2023-04-25T22:02:17.857Z,5.50
2023-04-25T22:04:47.241Z,5.40
2023-04-25T22:07:14.261Z,5.30
2023-04-25T22:09:51.258Z,5.20
2023-04-25T22:12:21.496Z,5.10
2023-04-25T22:14:48.826Z,5.10
2023-04-25T22:17:15.522Z,5.00
2023-04-25T22:19:43.134Z,4.90
2023-04-25T22:22:09.673Z,4.90
2023-04-25T22:24:36.211Z,4.90
2023-04-25T22:27:02.733Z,4.90
2023-04-25T22:29:29.275Z,5.00
2023-04-25T22:31:55.934Z,5.00
2023-04-25T22:34:22.494Z,5.00
2023-04-25T22:36:49.390Z,5.00
2023-04-25T22:39:16.923Z,4.90
2023-04-25T22:41:43.484Z,4.90
2023-04-25T22:44:11.055Z,4.90
2023-04-25T22:46:37.618Z,4.90
2023-04-25T22:49:04.751Z,4.90
2023-04-25T22:51:31.487Z,4.90
2023-04-25T22:53:57.988Z,4.90
2023-04-25T22:56:24.731Z,4.90
2023-04-25T22:58:51.702Z,4.90
2023-04-25T23:01:19.418Z,5.00
2023-04-25T23:03:46.327Z,5.00
2023-04-25T23:06:13.223Z,5.00
2023-04-25T23:08:40.641Z,5.00
2023-04-25T23:11:07.853Z,5.00
2023-04-25T23:13:37.586Z,5.10
2023-04-25T23:16:08.819Z,5.00
2023-04-25T23:18:36.065Z,5.00
2023-04-25T23:21:03.859Z,5.00
2023-04-25T23:23:30.424Z,4.90
2023-04-25T23:25:57.556Z,4.90
2023-04-25T23:28:24.176Z,4.90
2023-04-25T23:30:50.885Z,4.90
2023-04-25T23:33:17.430Z,4.80
2023-04-25T23:35:43.922Z,4.90
2023-04-25T23:38:10.508Z,4.80
2023-04-25T23:40:37.326Z,4.80
2023-04-25T23:43:03.822Z,4.80
2023-04-25T23:45:30.403Z,4.80
2023-04-25T23:47:57.144Z,4.80
2023-04-25T23:50:24.242Z,4.80
2023-04-25T23:52:50.850Z,4.70
2023-04-25T23:55:17.361Z,4.70
2023-04-25T23:57:44.366Z,4.70
